createdAt,value
2018-09-24T00:01:56.012Z,3.00
2018-09-24T00:04:26.085Z,3.00
2018-09-24T00:06:56.079Z,2.77
2018-09-24T00:09:26.017Z,2.53
2018-09-24T00:11:56.351Z,2.83
2018-09-24T00:14:26.369Z,2.70
2018-09-24T00:16:56.356Z,2.57
2018-09-24T00:19:26.481Z,2.57
2018-09-24T00:21:56.676Z,2.80
2018-09-24T00:24:26.705Z,2.37
2018-09-24T00:26:56.692Z,2.70
2018-09-24T00:29:27.044Z,2.57
2018-09-24T00:31:57.174Z,2.50
2018-09-24T00:34:28.203Z,2.27
2018-09-24T00:36:58.462Z,2.17
2018-09-24T00:39:28.670Z,2.50
2018-09-24T00:41:58.795Z,2.57
2018-09-24T00:44:28.851Z,2.40
2018-09-24T00:46:59.031Z,2.30
2018-09-24T00:49:29.472Z,2.30
2018-09-24T00:51:59.526Z,2.50
2018-09-24T00:54:29.758Z,2.57
2018-09-24T00:56:59.958Z,2.10
2018-09-24T00:59:29.937Z,2.63
2018-09-24T01:01:59.868Z,2.00
2018-09-24T01:04:29.932Z,2.30
2018-09-24T01:07:00.169Z,2.03
2018-09-24T01:09:31.220Z,2.20
2018-09-24T01:12:01.354Z,1.80
2018-09-24T01:14:31.425Z,2.43
2018-09-24T01:17:01.614Z,2.50
2018-09-24T01:19:31.529Z,2.23
2018-09-24T01:22:01.613Z,2.10
2018-09-24T01:24:31.678Z,2.10
2018-09-24T01:27:01.833Z,2.10
2018-09-24T01:29:31.865Z,2.27
2018-09-24T01:32:01.966Z,2.03
2018-09-24T01:34:31.985Z,2.20
2018-09-24T01:37:01.993Z,2.10
2018-09-24T01:39:31.933Z,2.37
2018-09-24T01:42:01.892Z,2.10
2018-09-24T01:44:31.893Z,2.20
2018-09-24T01:47:01.923Z,2.20
2018-09-24T01:49:31.851Z,1.80
2018-09-24T01:52:01.857Z,2.20
2018-09-24T01:54:31.987Z,1.90
2018-09-24T01:57:01.908Z,2.20
2018-09-24T01:59:31.839Z,1.80
2018-09-24T02:02:01.805Z,1.97
2018-09-24T02:04:31.792Z,2.07
2018-09-24T02:07:02.045Z,1.80
2018-09-24T02:09:32.319Z,1.93
2018-09-24T02:12:05.556Z,2.20
2018-09-24T02:14:36.097Z,1.70
2018-09-24T02:17:06.493Z,2.13
2018-09-24T02:19:36.523Z,1.83
2018-09-24T02:22:06.500Z,1.93
2018-09-24T02:24:36.519Z,1.80
2018-09-24T02:27:08.744Z,2.00
2018-09-24T02:29:39.345Z,1.93
2018-09-24T02:32:09.374Z,1.80
2018-09-24T02:34:39.448Z,1.80
2018-09-24T02:37:09.571Z,1.53
2018-09-24T02:39:39.608Z,1.73
2018-09-24T02:42:09.761Z,1.57
2018-09-24T02:44:39.830Z,1.60
2018-09-24T02:47:09.767Z,1.50
2018-09-24T02:49:39.881Z,1.60
2018-09-24T02:52:10.564Z,1.80
2018-09-24T02:54:40.503Z,1.80
2018-09-24T02:57:10.450Z,1.80
2018-09-24T02:59:44.994Z,1.83
2018-09-24T03:02:15.037Z,1.60
2018-09-24T03:04:45.069Z,1.80
2018-09-24T03:07:14.986Z,1.80
2018-09-24T03:09:45.077Z,1.80
2018-09-24T03:12:15.125Z,1.40
2018-09-24T03:14:45.303Z,1.67
2018-09-24T03:17:17.678Z,1.67
2018-09-24T03:19:47.697Z,1.30
2018-09-24T03:22:20.903Z,1.70
2018-09-24T03:24:51.453Z,1.70
2018-09-24T03:27:22.213Z,1.60
2018-09-24T03:29:52.309Z,1.70
2018-09-24T03:32:22.341Z,1.50
2018-09-24T03:34:52.391Z,1.50
2018-09-24T03:37:22.555Z,1.40
2018-09-24T03:39:52.546Z,1.40
2018-09-24T03:42:22.562Z,1.60
2018-09-24T03:44:52.842Z,1.67
2018-09-24T03:47:22.876Z,1.70
2018-09-24T03:49:52.998Z,1.40
2018-09-24T03:52:22.958Z,1.60
2018-09-24T03:54:52.923Z,1.37
2018-09-24T03:57:22.886Z,1.47
2018-09-24T03:59:52.979Z,1.60
2018-09-24T04:02:23.102Z,1.20
2018-09-24T04:04:58.458Z,1.33
2018-09-24T04:07:33.897Z,1.53
2018-09-24T04:10:09.289Z,1.40
2018-09-24T04:12:44.579Z,1.67
2018-09-24T04:15:20.073Z,1.80
2018-09-24T04:17:55.430Z,1.70
2018-09-24T04:20:30.789Z,1.40
2018-09-24T04:23:05.987Z,1.57
2018-09-24T04:25:41.329Z,1.90
2018-09-24T04:28:16.506Z,1.77
2018-09-24T04:30:51.750Z,1.50
2018-09-24T04:33:26.884Z,1.50
2018-09-24T04:36:02.076Z,1.50
2018-09-24T04:38:37.447Z,1.50
2018-09-24T04:41:12.725Z,1.93
2018-09-24T04:43:47.937Z,1.60
2018-09-24T04:46:23.375Z,1.67
2018-09-24T04:48:58.737Z,1.80
2018-09-24T04:51:34.114Z,1.70
2018-09-24T04:54:09.278Z,1.60
2018-09-24T04:56:44.525Z,1.90
2018-09-24T04:59:19.662Z,2.00
2018-09-24T05:01:54.898Z,2.50
2018-09-24T05:04:30.466Z,1.83
2018-09-24T05:07:05.813Z,1.77
2018-09-24T05:09:41.196Z,1.87
2018-09-24T05:12:16.442Z,2.20
2018-09-24T05:14:51.650Z,2.20
2018-09-24T05:17:26.866Z,1.90
2018-09-24T05:20:02.110Z,2.20
2018-09-24T05:22:37.340Z,2.00
2018-09-24T05:25:12.774Z,2.17
2018-09-24T05:27:47.811Z,2.27
2018-09-24T05:30:23.235Z,2.10
2018-09-24T05:32:58.438Z,1.63
2018-09-24T05:35:33.752Z,1.50
2018-09-24T05:38:09.096Z,2.10
2018-09-24T05:40:44.653Z,1.83
2018-09-24T05:43:19.885Z,1.80
2018-09-24T05:45:55.165Z,1.70
2018-09-24T05:48:30.668Z,1.70
2018-09-24T05:51:05.056Z,1.50
2018-09-24T05:53:39.728Z,2.00
2018-09-24T05:56:15.189Z,1.70
2018-09-24T05:58:50.407Z,1.60
2018-09-24T06:01:25.927Z,1.53
2018-09-24T06:04:01.298Z,1.40
2018-09-24T06:06:36.663Z,1.40
2018-09-24T06:09:14.111Z,1.47
2018-09-24T06:11:49.413Z,1.30
2018-09-24T06:14:24.460Z,1.40
2018-09-24T06:16:59.653Z,1.27
2018-09-24T06:19:34.896Z,1.30
2018-09-24T06:22:10.217Z,1.10
2018-09-24T06:24:45.557Z,1.40
2018-09-24T06:27:20.989Z,1.03
2018-09-24T06:29:56.172Z,1.77
2018-09-24T06:32:31.697Z,1.40
2018-09-24T06:35:07.182Z,1.43
2018-09-24T06:37:42.639Z,1.37
2018-09-24T06:40:17.913Z,1.30
2018-09-24T06:42:53.298Z,1.27
2018-09-24T06:45:28.612Z,1.00
2018-09-24T06:48:03.935Z,1.20
2018-09-24T06:50:39.336Z,1.13
2018-09-24T06:53:14.739Z,1.30
2018-09-24T06:55:49.985Z,1.37
2018-09-24T06:58:25.386Z,0.93
2018-09-24T07:01:00.683Z,1.10
2018-09-24T07:03:36.074Z,1.20
2018-09-24T07:06:11.467Z,1.20
2018-09-24T07:08:46.891Z,1.10
2018-09-24T07:11:22.252Z,1.50
2018-09-24T07:13:57.454Z,1.20
2018-09-24T07:16:32.670Z,1.10
2018-09-24T07:19:07.982Z,0.90
2018-09-24T07:21:43.548Z,1.20
2018-09-24T07:24:18.847Z,1.47
2018-09-24T07:26:54.219Z,1.10
2018-09-24T07:29:29.607Z,1.10
2018-09-24T07:32:04.908Z,1.40
2018-09-24T07:34:40.129Z,1.20
2018-09-24T07:37:15.651Z,0.93
2018-09-24T07:39:50.787Z,1.20
2018-09-24T07:42:26.057Z,1.00
2018-09-24T07:45:01.290Z,1.20
2018-09-24T07:47:36.614Z,1.00
2018-09-24T07:50:11.873Z,1.30
2018-09-24T07:52:46.985Z,1.23
2018-09-24T07:55:22.405Z,1.23
2018-09-24T07:57:57.736Z,1.23
2018-09-24T08:00:33.098Z,1.40
2018-09-24T08:03:08.297Z,1.40
2018-09-24T08:05:43.525Z,1.23
2018-09-24T08:08:18.958Z,1.20
2018-09-24T08:10:54.339Z,1.10
2018-09-24T08:13:29.649Z,1.00
2018-09-24T08:16:04.768Z,1.10
2018-09-24T08:18:40.052Z,1.17
2018-09-24T08:21:15.454Z,1.40
2018-09-24T08:23:50.907Z,1.30
2018-09-24T08:26:26.310Z,1.23
2018-09-24T08:29:01.789Z,1.33
2018-09-24T08:31:37.045Z,1.00
2018-09-24T08:34:12.367Z,1.13
2018-09-24T08:36:47.600Z,1.00
2018-09-24T08:39:22.814Z,1.47
2018-09-24T08:41:57.914Z,1.33
2018-09-24T08:44:33.164Z,1.10
2018-09-24T08:47:08.654Z,1.33
2018-09-24T08:49:44.074Z,1.00
2018-09-24T08:52:19.268Z,1.30
2018-09-24T08:54:54.656Z,1.30
2018-09-24T08:57:29.846Z,1.03
2018-09-24T09:00:05.011Z,1.60
2018-09-24T09:02:40.296Z,1.07
2018-09-24T09:05:15.688Z,1.50
2018-09-24T09:07:50.838Z,1.10
2018-09-24T09:10:26.214Z,1.20
2018-09-24T09:13:01.353Z,1.23
2018-09-24T09:15:36.925Z,1.30
2018-09-24T09:18:12.360Z,1.43
2018-09-24T09:20:47.588Z,1.20
2018-09-24T09:23:22.958Z,1.30
2018-09-24T09:25:58.352Z,1.40
2018-09-24T09:28:33.553Z,2.63
2018-09-24T09:31:09.072Z,2.27
2018-09-24T09:33:44.260Z,2.10
2018-09-24T09:36:19.734Z,2.40
2018-09-24T09:38:55.103Z,2.20
2018-09-24T09:41:30.389Z,1.97
2018-09-24T09:44:05.662Z,2.13
2018-09-24T09:46:40.991Z,2.40
2018-09-24T09:49:16.125Z,2.00
2018-09-24T09:51:51.446Z,2.03
2018-09-24T09:54:26.710Z,1.97
2018-09-24T09:57:01.909Z,1.80
2018-09-24T09:59:37.144Z,2.17
2018-09-24T10:02:12.691Z,1.70
2018-09-24T10:04:48.202Z,1.97
2018-09-24T10:07:23.324Z,1.70
2018-09-24T10:09:58.426Z,1.70
2018-09-24T10:12:33.650Z,1.77
2018-09-24T10:15:09.061Z,1.60
2018-09-24T10:17:44.247Z,1.80
2018-09-24T10:20:19.878Z,1.67
2018-09-24T10:22:55.110Z,1.73
2018-09-24T10:25:30.548Z,2.03
2018-09-24T10:28:05.903Z,1.30
2018-09-24T10:30:41.139Z,1.93
2018-09-24T10:33:16.375Z,1.70
2018-09-24T10:35:51.778Z,1.60
2018-09-24T10:38:26.954Z,1.40
2018-09-24T10:41:02.218Z,1.60
2018-09-24T10:43:37.682Z,2.20
2018-09-24T10:46:12.906Z,2.00
2018-09-24T10:48:48.125Z,1.77
2018-09-24T10:51:23.335Z,2.03
2018-09-24T10:53:58.745Z,2.53
2018-09-24T10:56:34.092Z,3.87
2018-09-24T10:59:09.455Z,6.47
2018-09-24T11:01:44.793Z,6.90
2018-09-24T11:04:20.052Z,4.43
2018-09-24T11:06:55.383Z,5.27
2018-09-24T11:09:30.552Z,4.80
2018-09-24T11:12:05.916Z,5.10
2018-09-24T11:14:41.115Z,4.03
2018-09-24T11:17:16.759Z,4.07
2018-09-24T11:19:51.744Z,3.90
2018-09-24T11:22:27.128Z,3.80
2018-09-24T11:25:02.307Z,3.43
2018-09-24T11:27:37.547Z,3.70
2018-09-24T11:30:12.826Z,2.87
2018-09-24T11:32:48.131Z,3.23
2018-09-24T11:35:23.790Z,3.00
2018-09-24T11:37:59.446Z,2.30
2018-09-24T11:40:35.352Z,2.80
2018-09-24T11:43:10.599Z,2.23
2018-09-24T11:45:46.127Z,2.10
2018-09-24T11:48:21.421Z,1.80
2018-09-24T11:50:56.663Z,1.90
2018-09-24T11:53:31.883Z,1.50
2018-09-24T11:56:07.423Z,1.83
2018-09-24T11:58:42.556Z,1.80
2018-09-24T12:01:18.032Z,1.53
2018-09-24T12:03:53.408Z,1.60
2018-09-24T12:06:29.114Z,1.60
2018-09-24T12:09:04.451Z,1.73
2018-09-24T12:11:39.627Z,1.70
2018-09-24T12:14:14.676Z,1.70
2018-09-24T12:16:50.046Z,1.30
2018-09-24T12:19:25.216Z,1.60
2018-09-24T12:22:00.566Z,1.70
2018-09-24T12:24:35.960Z,2.00
2018-09-24T12:27:11.624Z,1.70
2018-09-24T12:29:46.793Z,2.10
2018-09-24T12:32:21.985Z,1.73
2018-09-24T12:34:57.240Z,2.20
2018-09-24T12:37:32.537Z,1.50
2018-09-24T12:40:07.879Z,1.67
2018-09-24T12:42:43.127Z,1.43
2018-09-24T12:45:18.414Z,1.63
2018-09-24T12:47:53.644Z,1.77
2018-09-24T13:02:07.251Z,1.53
2018-09-24T13:04:42.358Z,1.67
2018-09-24T13:07:17.698Z,1.23
2018-09-24T13:15:51.294Z,1.43
2018-09-24T13:18:26.528Z,1.50
2018-09-24T13:21:01.939Z,1.90
2018-09-24T13:23:37.202Z,1.67
2018-09-24T13:26:12.902Z,1.63
2018-09-24T13:28:48.090Z,1.50
2018-09-24T13:31:23.410Z,1.80
2018-09-24T13:33:58.775Z,1.90
2018-09-24T13:36:34.142Z,1.60
2018-09-24T13:39:10.792Z,1.87
2018-09-24T13:41:45.959Z,1.53
2018-09-24T13:44:21.172Z,1.70
2018-09-24T13:46:56.491Z,1.80
2018-09-24T13:49:32.190Z,1.30
2018-09-24T13:52:07.589Z,1.40
2018-09-24T13:54:42.757Z,1.60
2018-09-24T13:57:18.039Z,1.33
2018-09-24T13:59:53.448Z,1.37
2018-09-24T14:02:28.870Z,1.73
2018-09-24T14:05:04.206Z,1.23
2018-09-24T14:07:39.535Z,1.53
2018-09-24T14:10:14.731Z,1.43
2018-09-24T14:12:50.074Z,1.57
2018-09-24T14:15:25.445Z,1.73
2018-09-24T14:18:00.792Z,1.53
2018-09-24T14:20:36.164Z,1.10
2018-09-24T14:23:11.748Z,1.20
2018-09-24T14:25:46.974Z,1.23
2018-09-24T14:28:22.397Z,1.23
2018-09-24T14:30:57.805Z,1.77
2018-09-24T14:33:33.236Z,1.30
2018-09-24T14:36:08.524Z,1.30
2018-09-24T14:38:43.877Z,1.27
2018-09-24T14:41:19.151Z,1.10
2018-09-24T16:13:20.955Z,1.40
2018-09-24T16:15:56.413Z,1.40
2018-09-24T16:18:31.849Z,1.40
2018-09-24T16:24:14.127Z,1.40
2018-09-24T16:26:50.143Z,1.50
2018-09-24T16:29:25.429Z,1.60
2018-09-24T16:34:50.996Z,1.20
2018-09-24T16:37:26.480Z,1.70
2018-09-24T16:40:01.812Z,1.60
2018-09-24T16:42:37.240Z,1.40
2018-09-24T16:45:12.697Z,1.37
2018-09-24T16:47:47.995Z,1.50
2018-09-24T16:50:23.137Z,1.67
2018-09-24T16:52:58.383Z,1.67
2018-09-24T16:55:33.610Z,2.47
2018-09-24T16:58:09.243Z,1.60
2018-09-24T17:00:42.884Z,1.60
2018-09-24T17:03:18.790Z,1.60
2018-09-24T17:11:43.967Z,1.57
2018-09-24T17:14:19.289Z,3.80
2018-09-24T17:16:54.673Z,2.70
2018-09-24T17:19:29.875Z,2.60
2018-09-24T17:22:05.205Z,2.33
2018-09-24T17:24:40.582Z,22.27
2018-09-24T17:27:16.099Z,22.87
2018-09-24T17:29:51.512Z,20.07
2018-09-24T17:32:27.004Z,17.60
2018-09-24T17:35:02.348Z,16.00
2018-09-24T17:37:37.728Z,14.57
2018-09-24T17:40:13.210Z,13.67
2018-09-24T17:42:48.570Z,13.40
2018-09-24T17:45:23.960Z,13.50
2018-09-24T17:47:59.581Z,12.43
2018-09-24T17:50:34.960Z,11.13
2018-09-24T17:53:10.132Z,11.30
2018-09-24T17:55:45.554Z,11.10
2018-09-24T17:58:20.909Z,10.63
2018-09-24T18:00:56.179Z,10.70
2018-09-24T18:03:31.619Z,9.83
2018-09-24T18:06:07.019Z,10.00
2018-09-24T18:08:42.420Z,9.37
2018-09-24T18:11:17.660Z,9.27
2018-09-24T18:13:52.857Z,9.30
2018-09-24T18:16:28.080Z,8.37
2018-09-24T18:19:03.543Z,8.40
2018-09-24T18:21:38.823Z,8.17
2018-09-24T18:24:14.262Z,8.43
2018-09-24T18:26:49.635Z,9.37
2018-09-24T18:29:24.977Z,7.87
2018-09-24T18:32:00.372Z,8.47
2018-09-24T18:34:35.736Z,7.40
2018-09-24T18:37:11.360Z,7.43
2018-09-24T18:39:46.806Z,8.30
2018-09-24T18:42:22.282Z,8.00
2018-09-24T18:44:57.773Z,7.60
2018-09-24T18:47:33.023Z,7.43
2018-09-24T18:50:08.444Z,7.03
2018-09-24T18:52:43.831Z,7.27
2018-09-24T18:55:19.271Z,6.97
2018-09-24T18:57:54.586Z,7.03
2018-09-24T19:00:29.967Z,7.10
2018-09-24T19:03:05.308Z,6.90
2018-09-24T19:05:40.677Z,6.83
2018-09-24T19:11:10.131Z,6.30
2018-09-24T19:13:45.447Z,5.97
2018-09-24T19:16:20.698Z,5.90
2018-09-24T19:18:56.098Z,5.90
2018-09-24T19:21:31.559Z,6.07
2018-09-24T19:24:06.900Z,5.77
2018-09-24T19:26:42.235Z,5.63
2018-09-24T19:29:17.598Z,5.70
2018-09-24T19:31:52.076Z,6.07
2018-09-24T19:37:21.232Z,5.67
2018-09-24T19:39:56.727Z,5.37
2018-09-24T19:42:32.091Z,5.63
2018-09-24T19:45:07.442Z,5.30
2018-09-24T19:47:42.788Z,4.90
2018-09-24T19:50:17.940Z,4.77
2018-09-24T19:52:53.121Z,4.83
2018-09-24T19:55:28.729Z,4.80
2018-09-24T19:58:04.140Z,4.67
2018-09-24T20:00:39.542Z,4.67
2018-09-24T20:09:14.979Z,4.50
2018-09-24T20:11:50.410Z,4.00
2018-09-24T20:14:25.800Z,5.27
2018-09-24T20:19:47.538Z,4.27
2018-09-24T20:25:24.856Z,4.10
2018-09-24T20:31:03.193Z,4.50
2018-09-24T20:33:38.368Z,3.90
2018-09-24T20:42:10.874Z,4.00
2018-09-24T20:44:46.109Z,4.13
2018-09-24T20:47:21.553Z,5.67
2018-09-24T20:49:56.866Z,5.67
2018-09-24T20:52:32.316Z,4.70
2018-09-24T20:55:08.186Z,5.20
2018-09-24T20:57:43.569Z,5.20
2018-09-24T21:00:18.963Z,4.60
2018-09-24T21:02:54.210Z,4.43
2018-09-24T21:05:29.575Z,4.40
2018-09-24T21:08:04.783Z,4.47
2018-09-24T21:10:40.097Z,4.50
2018-09-24T21:13:15.399Z,4.53
2018-09-24T21:15:50.601Z,4.53
2018-09-24T21:18:26.042Z,4.67
2018-09-24T21:21:01.368Z,4.13
2018-09-24T21:23:36.889Z,4.60
2018-09-24T21:26:12.135Z,4.87
2018-09-24T21:28:47.335Z,4.07
2018-09-24T21:31:22.564Z,4.37
2018-09-24T21:33:58.050Z,4.20
2018-09-24T21:36:33.501Z,4.03
2018-09-24T21:39:08.875Z,4.03
2018-09-24T21:41:44.174Z,3.70
2018-09-24T21:44:21.115Z,3.83
2018-09-24T21:46:56.466Z,3.90
2018-09-24T21:49:31.914Z,3.40
2018-09-24T21:52:07.089Z,3.67
